This is the latest recevied weather packets stored in our database for station/object K6LCM-13. If no packets are shown the sender has not sent any weather packets the latest 10 day(s).
| Time | Temp. | Humidity | Pressure | Rain* | Wind** | Luminosity | Snow |
|---|---|---|---|---|---|---|---|
| 1777254950 | 15.56° C | 77% | 1013.6 hPa | 0 mm | - | - | - |
| 1777254409 | 15.56° C | 76% | 1013.6 hPa | 0 mm | - | - | - |
| 1777253870 | 16.11° C | 76% | 1013.6 hPa | 0 mm | - | - | - |
| 1777253329 | 16.11° C | 76% | 1013.8 hPa | 0 mm | - | - | - |
| 1777252789 | 16.11° C | 76% | 1013.8 hPa | 0 mm | - | - | - |
| 1777252249 | 16.11° C | 76% | 1013.7 hPa | 0 mm | - | - | - |
| 1777251170 | 16.67° C | 74% | 1013.7 hPa | 0 mm | - | - | - |
| 1777250629 | 16.11° C | 75% | 1013.6 hPa | 0 mm | - | - | - |
| 1777250089 | 16.67° C | 74% | 1013.6 hPa | 0 mm | - | - | - |
| 1777249549 | 16.67° C | 74% | 1013.5 hPa | 0 mm | - | - | - |
| 1777249009 | 16.67° C | 73% | 1013.4 hPa | 0 mm | - | - | - |
| 1777248469 | 16.67° C | 71% | 1013.4 hPa | 0 mm | - | - | - |
| 1777247930 | 17.22° C | 72% | 1013.3 hPa | 0 mm | - | - | - |
| 1777247389 | 16.67° C | 72% | 1013.3 hPa | 0 mm | - | - | - |
| 1777246850 | 16.67° C | 71% | 1013.3 hPa | 0 mm | - | - | - |
| 1777246309 | 16.67° C | 71% | 1013.3 hPa | 0 mm | - | - | - |
| 1777245247 | 17.22° C | 70% | 1013.3 hPa | 0 mm | - | - | - |
| 1777244707 | 16.67° C | 71% | 1013.5 hPa | 0 mm | - | - | - |
| 1777244167 | 16.67° C | 70% | 1013.5 hPa | 0 mm | - | - | - |
| 1777243626 | 17.22° C | 68% | 1013.6 hPa | 0 mm | - | - | - |
| 1777243087 | 16.67° C | 71% | 1013.7 hPa | 0 mm | - | - | - |
| 1777242007 | 17.22° C | 66% | 1013.8 hPa | 0 mm | - | - | - |
| 1777241349 | 17.22° C | 67% | 1013.8 hPa | 0 mm | - | - | - |
| 1777240809 | 17.22° C | 68% | 1014 hPa | 0 mm | - | - | - |
| 1777240268 | 17.22° C | 68% | 1014 hPa | 0 mm | - | - | - |
* Rain latest hour (hover to see other rain measurements)
** Current wind speed in m/s (hover to see current wind gust speed)